sensor_id;sensor_type;location;lat;lon;timestamp;pressure;altitude;pressure_sealevel;temperature;humidity
23446;BME280;11895;48.738;9.320;2023-01-24T00:01:17;100182.63;;;6.11;100.00
23446;BME280;11895;48.738;9.320;2023-01-24T00:03:45;100178.03;;;6.30;100.00
23446;BME280;11895;48.738;9.320;2023-01-24T00:06:14;100169.09;;;6.31;100.00
23446;BME280;11895;48.738;9.320;2023-01-24T00:08:42;100171.03;;;6.11;100.00
23446;BME280;11895;48.738;9.320;2023-01-24T00:11:12;100174.63;;;6.04;100.00
23446;BME280;11895;48.738;9.320;2023-01-24T00:13:40;100178.19;;;6.07;100.00
23446;BME280;11895;48.738;9.320;2023-01-24T00:16:18;100182.59;;;6.14;100.00
23446;BME280;11895;48.738;9.320;2023-01-24T00:18:48;100187.31;;;5.62;100.00
23446;BME280;11895;48.738;9.320;2023-01-24T00:21:23;100183.78;;;5.54;100.00
23446;BME280;11895;48.738;9.320;2023-01-24T00:23:53;100196.34;;;5.30;100.00
23446;BME280;11895;48.738;9.320;2023-01-24T00:26:24;100187.28;;;5.65;100.00
23446;BME280;11895;48.738;9.320;2023-01-24T00:28:52;100193.59;;;5.50;100.00
23446;BME280;11895;48.738;9.320;2023-01-24T00:31:23;100191.66;;;5.84;100.00
23446;BME280;11895;48.738;9.320;2023-01-24T00:33:51;100183.66;;;5.81;100.00
23446;BME280;11895;48.738;9.320;2023-01-24T00:36:19;100197.13;;;5.58;100.00
23446;BME280;11895;48.738;9.320;2023-01-24T00:38:47;100196.13;;;5.85;100.00
23446;BME280;11895;48.738;9.320;2023-01-24T00:41:15;100192.56;;;5.83;100.00
23446;BME280;11895;48.738;9.320;2023-01-24T00:43:43;100188.97;;;5.84;100.00
23446;BME280;11895;48.738;9.320;2023-01-24T00:46:10;100195.31;;;5.66;100.00
23446;BME280;11895;48.738;9.320;2023-01-24T00:48:38;100187.28;;;5.65;100.00
23446;BME280;11895;48.738;9.320;2023-01-24T00:51:09;100191.91;;;5.25;100.00
23446;BME280;11895;48.738;9.320;2023-01-24T00:53:37;100189.94;;;5.70;100.00
23446;BME280;11895;48.738;9.320;2023-01-24T00:56:05;100183.66;;;5.78;100.00
23446;BME280;11895;48.738;9.320;2023-01-24T00:58:34;100193.69;;;5.27;100.00
23446;BME280;11895;48.738;9.320;2023-01-24T01:01:02;100199.91;;;5.29;100.00
23446;BME280;11895;48.738;9.320;2023-01-24T01:03:30;100201.47;;;5.82;100.00
23446;BME280;11895;48.738;9.320;2023-01-24T01:06:12;100195.31;;;5.68;100.00
23446;BME280;11895;48.738;9.320;2023-01-24T01:08:42;100207.00;;;5.43;100.00
23446;BME280;11895;48.738;9.320;2023-01-24T01:11:10;100201.72;;;5.18;100.00
23446;BME280;11895;48.738;9.320;2023-01-24T01:13:38;100201.59;;;5.58;100.00
23446;BME280;11895;48.738;9.320;2023-01-24T01:16:12;100207.69;;;5.84;100.00
23446;BME280;11895;48.738;9.320;2023-01-24T01:18:41;100209.56;;;5.65;100.00
23446;BME280;11895;48.738;9.320;2023-01-24T01:21:15;100210.41;;;5.75;100.00
23446;BME280;11895;48.738;9.320;2023-01-24T01:23:44;100220.34;;;5.39;100.00
23446;BME280;11895;48.738;9.320;2023-01-24T01:26:18;100215.88;;;5.57;100.00
23446;BME280;11895;48.738;9.320;2023-01-24T01:28:54;100211.34;;;5.70;100.00
23446;BME280;11895;48.738;9.320;2023-01-24T01:31:22;100210.38;;;5.87;100.00
23446;BME280;11895;48.738;9.320;2023-01-24T01:33:49;100207.59;;;6.09;100.00
23446;BME280;11895;48.738;9.320;2023-01-24T01:36:17;100208.56;;;6.00;100.00
23446;BME280;11895;48.738;9.320;2023-01-24T01:38:45;100212.25;;;5.67;100.00
23446;BME280;11895;48.738;9.320;2023-01-24T01:41:13;100214.88;;;5.75;100.00
23446;BME280;11895;48.738;9.320;2023-01-24T01:43:41;100210.47;;;5.66;100.00
23446;BME280;11895;48.738;9.320;2023-01-24T01:46:35;100213.06;;;5.81;100.00
23446;BME280;11895;48.738;9.320;2023-01-24T01:49:17;100213.28;;;5.28;100.00
23446;BME280;11895;48.738;9.320;2023-01-24T01:51:52;100222.19;;;5.28;100.00
23446;BME280;11895;48.738;9.320;2023-01-24T01:54:44;100220.38;;;5.33;100.00
23446;BME280;11895;48.738;9.320;2023-01-24T01:57:23;100227.41;;;5.56;100.00
23446;BME280;11895;48.738;9.320;2023-01-24T02:00:04;100223.09;;;5.15;100.00
23446;BME280;11895;48.738;9.320;2023-01-24T02:02:50;100231.03;;;5.47;100.00
23446;BME280;11895;48.738;9.320;2023-01-24T02:05:25;100231.13;;;5.10;100.00
23446;BME280;11895;48.738;9.320;2023-01-24T02:07:59;100224.75;;;5.62;100.00
23446;BME280;11895;48.738;9.320;2023-01-24T02:10:30;100209.56;;;5.68;100.00
23446;BME280;11895;48.738;9.320;2023-01-24T02:13:20;100212.38;;;5.32;100.00
23446;BME280;11895;48.738;9.320;2023-01-24T02:15:51;100216.81;;;5.37;100.00
23446;BME280;11895;48.738;9.320;2023-01-24T02:18:35;100218.63;;;5.25;100.00
23446;BME280;11895;48.738;9.320;2023-01-24T02:21:14;100228.44;;;5.23;100.00
23446;BME280;11895;48.738;9.320;2023-01-24T02:24:05;100228.25;;;5.73;100.00
23446;BME280;11895;48.738;9.320;2023-01-24T02:26:42;100230.16;;;5.31;100.00
23446;BME280;11895;48.738;9.320;2023-01-24T02:29:13;100228.31;;;5.61;100.00
23446;BME280;11895;48.738;9.320;2023-01-24T02:32:05;100226.59;;;5.41;100.00
23446;BME280;11895;48.738;9.320;2023-01-24T02:34:34;100233.69;;;5.49;100.00
23446;BME280;11895;48.738;9.320;2023-01-24T02:37:09;100220.28;;;5.62;100.00
23446;BME280;11895;48.738;9.320;2023-01-24T02:42:29;100226.44;;;5.81;100.00
23446;BME280;11895;48.738;9.320;2023-01-24T02:45:18;100244.38;;;5.52;100.00
23446;BME280;11895;48.738;9.320;2023-01-24T02:47:52;100245.22;;;5.60;100.00
23446;BME280;11895;48.738;9.320;2023-01-24T02:50:24;100244.25;;;5.85;100.00
23446;BME280;11895;48.738;9.320;2023-01-24T02:52:54;100253.16;;;5.97;100.00
23446;BME280;11895;48.738;9.320;2023-01-24T02:55:40;100244.13;;;6.16;100.00
23446;BME280;11895;48.738;9.320;2023-01-24T02:58:28;100247.69;;;6.16;100.00
23446;BME280;11895;48.738;9.320;2023-01-24T03:00:56;100238.72;;;6.25;100.00
23446;BME280;11895;48.738;9.320;2023-01-24T03:03:25;100244.13;;;6.16;100.00
23446;BME280;11895;48.738;9.320;2023-01-24T03:05:53;100244.25;;;5.85;100.00
23446;BME280;11895;48.738;9.320;2023-01-24T03:08:34;100242.44;;;5.87;100.00
23446;BME280;11895;48.738;9.320;2023-01-24T03:11:09;100242.34;;;6.12;100.00
23446;BME280;11895;48.738;9.320;2023-01-24T03:13:39;100244.13;;;6.16;100.00
23446;BME280;11895;48.738;9.320;2023-01-24T03:16:25;100241.53;;;6.02;100.00
23446;BME280;11895;48.738;9.320;2023-01-24T03:19:12;100244.31;;;5.73;100.00
23446;BME280;11895;48.738;9.320;2023-01-24T03:21:59;100238.94;;;5.76;100.00
23446;BME280;11895;48.738;9.320;2023-01-24T03:24:45;100252.25;;;5.98;100.00
23446;BME280;11895;48.738;9.320;2023-01-24T03:27:32;100247.78;;;5.93;100.00
23446;BME280;11895;48.738;9.320;2023-01-24T03:30:23;100250.44;;;6.03;100.00
23446;BME280;11895;48.738;9.320;2023-01-24T03:33:10;100248.69;;;5.94;100.00
23446;BME280;11895;48.738;9.320;2023-01-24T03:35:56;100246.16;;;5.54;100.00
23446;BME280;11895;48.738;9.320;2023-01-24T03:38:30;100243.38;;;5.82;100.00
23446;BME280;11895;48.738;9.320;2023-01-24T03:41:18;100245.97;;;6.02;100.00
23446;BME280;11895;48.738;9.320;2023-01-24T03:43:47;100261.22;;;5.78;100.00
23446;BME280;11895;48.738;9.320;2023-01-24T03:46:15;100249.81;;;5.27;100.00
23446;BME280;11895;48.738;9.320;2023-01-24T03:48:49;100254.25;;;5.33;100.00
23446;BME280;11895;48.738;9.320;2023-01-24T03:51:21;100261.34;;;5.43;100.00
23446;BME280;11895;48.738;9.320;2023-01-24T03:54:07;100256.72;;;5.83;100.00
23446;BME280;11895;48.738;9.320;2023-01-24T03:56:58;100255.88;;;5.77;100.00
23446;BME280;11895;48.738;9.320;2023-01-24T03:59:26;100255.06;;;5.55;100.00
23446;BME280;11895;48.738;9.320;2023-01-24T04:01:59;100258.59;;;5.60;100.00
23446;BME280;11895;48.738;9.320;2023-01-24T04:04:32;100253.34;;;5.32;100.00
23446;BME280;11895;48.738;9.320;2023-01-24T04:07:26;100263.88;;;5.75;100.00
23446;BME280;11895;48.738;9.320;2023-01-24T04:09:59;100262.06;;;5.86;100.00
23446;BME280;11895;48.738;9.320;2023-01-24T04:12:30;100260.34;;;5.70;100.00
23446;BME280;11895;48.738;9.320;2023-01-24T04:14:59;100254.91;;;5.99;100.00
23446;BME280;11895;48.738;9.320;2023-01-24T04:17:27;100257.59;;;5.98;100.00
23446;BME280;11895;48.738;9.320;2023-01-24T04:19:56;100258.53;;;5.78;100.00
23446;BME280;11895;48.738;9.320;2023-01-24T04:22:24;100248.63;;;6.06;100.00
23446;BME280;11895;48.738;9.320;2023-01-24T04:24:55;100258.53;;;5.78;100.00
23446;BME280;11895;48.738;9.320;2023-01-24T04:27:27;100245.09;;;6.03;100.00
23446;BME280;11895;48.738;9.320;2023-01-24T04:30:11;100249.56;;;5.98;100.00
23446;BME280;11895;48.738;9.320;2023-01-24T04:32:43;100249.53;;;6.04;100.00
23446;BME280;11895;48.738;9.320;2023-01-24T04:35:24;100245.91;;;6.17;100.00
23446;BME280;11895;48.738;9.320;2023-01-24T04:38:00;100247.84;;;5.75;100.00
23446;BME280;11895;48.738;9.320;2023-01-24T04:40:42;100249.56;;;5.95;100.00
23446;BME280;11895;48.738;9.320;2023-01-24T04:43:10;100251.31;;;6.09;100.00
23446;BME280;11895;48.738;9.320;2023-01-24T04:45:39;100253.03;;;6.13;100.00
23446;BME280;11895;48.738;9.320;2023-01-24T04:48:10;100258.41;;;6.09;100.00
23446;BME280;11895;48.738;9.320;2023-01-24T04:50:38;100253.09;;;6.06;100.00
23446;BME280;11895;48.738;9.320;2023-01-24T04:53:06;100258.38;;;6.18;100.00
23446;BME280;11895;48.738;9.320;2023-01-24T04:55:35;100266.50;;;5.89;100.00
23446;BME280;11895;48.738;9.320;2023-01-24T04:58:03;100269.13;;;6.04;100.00
23446;BME280;11895;48.738;9.320;2023-01-24T05:00:31;100266.47;;;6.10;100.00
23446;BME280;11895;48.738;9.320;2023-01-24T05:02:58;100266.50;;;5.98;100.00
23446;BME280;11895;48.738;9.320;2023-01-24T05:05:27;100271.00;;;5.79;100.00
23446;BME280;11895;48.738;9.320;2023-01-24T05:07:55;100267.47;;;5.77;100.00
23446;BME280;11895;48.738;9.320;2023-01-24T05:10:24;100271.16;;;5.30;100.00
23446;BME280;11895;48.738;9.320;2023-01-24T05:12:53;100284.38;;;5.82;100.00
23446;BME280;11895;48.738;9.320;2023-01-24T05:15:22;100280.91;;;5.57;100.00
23446;BME280;11895;48.738;9.320;2023-01-24T05:17:52;100280.88;;;5.60;100.00
23446;BME280;11895;48.738;9.320;2023-01-24T05:20:23;100281.69;;;5.87;100.00
23446;BME280;11895;48.738;9.320;2023-01-24T05:22:51;100279.88;;;6.01;100.00
23446;BME280;11895;48.738;9.320;2023-01-24T05:25:19;100283.59;;;5.44;100.00
23446;BME280;11895;48.738;9.320;2023-01-24T05:27:47;100287.16;;;5.43;100.00
23446;BME280;11895;48.738;9.320;2023-01-24T05:30:16;100285.34;;;5.63;100.00
23446;BME280;11895;48.738;9.320;2023-01-24T05:32:45;100286.13;;;5.88;100.00
23446;BME280;11895;48.738;9.320;2023-01-24T05:35:15;100294.13;;;5.89;100.00
23446;BME280;11895;48.738;9.320;2023-01-24T05:37:43;100294.22;;;5.71;100.00
23446;BME280;11895;48.738;9.320;2023-01-24T05:40:13;100293.38;;;5.49;100.00
23446;BME280;11895;48.738;9.320;2023-01-24T05:42:42;100296.09;;;5.38;100.00
23446;BME280;11895;48.738;9.320;2023-01-24T05:45:11;100304.06;;;5.54;100.00
23446;BME280;11895;48.738;9.320;2023-01-24T05:47:39;100303.16;;;5.67;100.00
23446;BME280;11895;48.738;9.320;2023-01-24T05:50:10;100312.06;;;5.63;100.00
23446;BME280;11895;48.738;9.320;2023-01-24T05:52:39;100312.00;;;5.75;100.00
23446;BME280;11895;48.738;9.320;2023-01-24T05:55:12;100306.75;;;5.54;100.00
23446;BME280;11895;48.738;9.320;2023-01-24T05:57:46;100310.34;;;5.33;100.00
23446;BME280;11895;48.738;9.320;2023-01-24T06:00:20;100307.63;;;5.59;100.00
23446;BME280;11895;48.738;9.320;2023-01-24T06:03:08;100304.91;;;5.70;100.00
23446;BME280;11895;48.738;9.320;2023-01-24T06:05:36;100304.00;;;5.78;100.00
23446;BME280;11895;48.738;9.320;2023-01-24T06:08:04;100306.75;;;5.54;100.00
23446;BME280;11895;48.738;9.320;2023-01-24T06:10:32;100306.72;;;5.63;100.00
23446;BME280;11895;48.738;9.320;2023-01-24T06:13:04;100306.78;;;5.11;100.00
23446;BME280;11895;48.738;9.320;2023-01-24T06:15:31;100310.34;;;5.24;100.00
23446;BME280;11895;48.738;9.320;2023-01-24T06:18:00;100302.25;;;5.63;100.00
23446;BME280;11895;48.738;9.320;2023-01-24T06:20:29;100307.72;;;5.08;100.00
23446;BME280;11895;48.738;9.320;2023-01-24T06:23:06;100311.19;;;5.50;100.00
23446;BME280;11895;48.738;9.320;2023-01-24T06:25:41;100306.69;;;5.77;100.00
23446;BME280;11895;48.738;9.320;2023-01-24T06:28:09;100306.69;;;5.72;100.00
23446;BME280;11895;48.738;9.320;2023-01-24T06:30:40;100310.22;;;5.92;100.00
23446;BME280;11895;48.738;9.320;2023-01-24T06:33:27;100304.88;;;5.82;100.00
23446;BME280;11895;48.738;9.320;2023-01-24T06:38:55;100322.69;;;5.84;100.00
23446;BME280;11895;48.738;9.320;2023-01-24T06:41:23;100318.22;;;5.88;100.00
23446;BME280;11895;48.738;9.320;2023-01-24T06:43:51;100326.25;;;5.92;100.00
23446;BME280;11895;48.738;9.320;2023-01-24T06:46:19;100325.38;;;5.92;100.00
23446;BME280;11895;48.738;9.320;2023-01-24T06:48:47;100336.94;;;5.99;100.00
23446;BME280;11895;48.738;9.320;2023-01-24T06:51:15;100328.03;;;6.01;100.00
23446;BME280;11895;48.738;9.320;2023-01-24T06:53:42;100327.19;;;5.73;100.00
23446;BME280;11895;48.738;9.320;2023-01-24T06:56:10;100335.16;;;5.95;100.00
23446;BME280;11895;48.738;9.320;2023-01-24T06:58:38;100340.44;;;6.13;100.00
23446;BME280;11895;48.738;9.320;2023-01-24T07:01:08;100338.66;;;6.12;100.00
23446;BME280;11895;48.738;9.320;2023-01-24T07:03:36;100344.09;;;5.97;100.00
23446;BME280;11895;48.738;9.320;2023-01-24T07:06:05;100341.34;;;6.12;100.00
23446;BME280;11895;48.738;9.320;2023-01-24T07:08:33;100344.94;;;6.09;100.00
23446;BME280;11895;48.738;9.320;2023-01-24T07:11:00;100350.28;;;6.09;100.00
23446;BME280;11895;48.738;9.320;2023-01-24T07:13:28;100355.63;;;6.15;100.00
23446;BME280;11895;48.738;9.320;2023-01-24T07:16:01;100338.69;;;6.04;100.00
23446;BME280;11895;48.738;9.320;2023-01-24T07:18:30;100350.25;;;6.14;100.00
23446;BME280;11895;48.738;9.320;2023-01-24T07:20:58;100349.34;;;6.18;100.00
23446;BME280;11895;48.738;9.320;2023-01-24T07:23:27;100355.63;;;6.12;100.00
23446;BME280;11895;48.738;9.320;2023-01-24T07:26:00;100352.06;;;6.03;100.00
23446;BME280;11895;48.738;9.320;2023-01-24T07:28:30;100349.41;;;6.03;100.00
23446;BME280;11895;48.738;9.320;2023-01-24T07:30:59;100357.41;;;6.04;100.00
23446;BME280;11895;48.738;9.320;2023-01-24T07:33:28;100362.69;;;6.23;100.00
23446;BME280;11895;48.738;9.320;2023-01-24T07:35:56;100361.88;;;6.07;100.00
23446;BME280;11895;48.738;9.320;2023-01-24T07:38:24;100365.41;;;6.18;100.00
23446;BME280;11895;48.738;9.320;2023-01-24T07:40:52;100366.28;;;6.18;100.00
23446;BME280;11895;48.738;9.320;2023-01-24T07:43:19;100369.84;;;6.17;100.00
23446;BME280;11895;48.738;9.320;2023-01-24T07:45:47;100369.97;;;5.70;100.00
23446;BME280;11895;48.738;9.320;2023-01-24T07:48:19;100383.31;;;5.82;100.00
23446;BME280;11895;48.738;9.320;2023-01-24T07:50:47;100382.38;;;5.89;100.00
23446;BME280;11895;48.738;9.320;2023-01-24T07:53:14;100380.63;;;6.02;100.00
23446;BME280;11895;48.738;9.320;2023-01-24T07:55:42;100383.28;;;6.07;100.00
23446;BME280;11895;48.738;9.320;2023-01-24T07:58:28;100390.34;;;6.31;100.00
23446;BME280;11895;48.738;9.320;2023-01-24T08:00:56;100392.03;;;6.50;100.00
23446;BME280;11895;48.738;9.320;2023-01-24T08:03:24;100393.94;;;6.25;100.00
23446;BME280;11895;48.738;9.320;2023-01-24T08:05:52;100396.66;;;6.14;100.00
23446;BME280;11895;48.738;9.320;2023-01-24T08:08:20;100400.22;;;6.06;100.00
23446;BME280;11895;48.738;9.320;2023-01-24T08:10:48;100402.88;;;6.16;100.00
23446;BME280;11895;48.738;9.320;2023-01-24T08:13:16;100401.06;;;6.26;100.00
23446;BME280;11895;48.738;9.320;2023-01-24T08:15:44;100401.91;;;6.33;100.00
23446;BME280;11895;48.738;9.320;2023-01-24T08:18:11;100393.03;;;6.23;100.00
23446;BME280;11895;48.738;9.320;2023-01-24T08:20:39;100405.44;;;6.49;100.00
23446;BME280;11895;48.738;9.320;2023-01-24T08:23:07;100408.16;;;6.39;100.00
23446;BME280;11895;48.738;9.320;2023-01-24T08:25:34;100404.63;;;6.30;100.00
23446;BME280;11895;48.738;9.320;2023-01-24T08:28:02;100406.38;;;6.38;100.00
23446;BME280;11895;48.738;9.320;2023-01-24T08:30:30;100408.16;;;6.39;100.00
23446;BME280;11895;48.738;9.320;2023-01-24T08:33:02;100414.41;;;6.35;100.00
23446;BME280;11895;48.738;9.320;2023-01-24T08:35:32;100419.69;;;6.51;100.00
23446;BME280;11895;48.738;9.320;2023-01-24T08:38:00;100419.69;;;6.54;100.00
23446;BME280;11895;48.738;9.320;2023-01-24T08:40:30;100413.44;;;6.52;100.00
23446;BME280;11895;48.738;9.320;2023-01-24T08:43:10;100417.97;;;6.33;100.00
23446;BME280;11895;48.738;9.320;2023-01-24T08:45:38;100422.41;;;6.44;100.00
23446;BME280;11895;48.738;9.320;2023-01-24T08:48:06;100424.19;;;6.49;100.00
23446;BME280;11895;48.738;9.320;2023-01-24T08:50:33;100426.06;;;6.16;100.00
23446;BME280;11895;48.738;9.320;2023-01-24T08:53:01;100425.94;;;6.51;100.00
23446;BME280;11895;48.738;9.320;2023-01-24T08:55:29;100424.94;;;6.74;100.00
23446;BME280;11895;48.738;9.320;2023-01-24T08:58:03;100425.72;;;6.89;100.00
23446;BME280;11895;48.738;9.320;2023-01-24T09:00:32;100427.44;;;7.03;100.00
23446;BME280;11895;48.738;9.320;2023-01-24T09:03:00;100431.22;;;6.62;100.00
23446;BME280;11895;48.738;9.320;2023-01-24T09:05:29;100434.75;;;6.78;100.00
23446;BME280;11895;48.738;9.320;2023-01-24T09:07:58;100439.25;;;6.68;100.00
23446;BME280;11895;48.738;9.320;2023-01-24T09:10:26;100440.00;;;6.94;100.00
23446;BME280;11895;48.738;9.320;2023-01-24T09:12:54;100442.84;;;6.64;100.00
23446;BME280;11895;48.738;9.320;2023-01-24T09:15:22;100439.38;;;6.43;100.00
23446;BME280;11895;48.738;9.320;2023-01-24T09:17:50;100445.41;;;6.87;100.00
23446;BME280;11895;48.738;9.320;2023-01-24T09:20:18;100435.56;;;6.92;100.00
23446;BME280;11895;48.738;9.320;2023-01-24T09:22:46;100431.97;;;6.93;100.00
23446;BME280;11895;48.738;9.320;2023-01-24T09:25:14;100434.66;;;6.93;100.00
23446;BME280;11895;48.738;9.320;2023-01-24T09:27:41;100443.59;;;6.92;100.00
23446;BME280;11895;48.738;9.320;2023-01-24T09:30:10;100446.53;;;6.28;100.00
23446;BME280;11895;48.738;9.320;2023-01-24T09:32:38;100444.69;;;6.42;100.00
23446;BME280;11895;48.738;9.320;2023-01-24T09:35:06;100448.22;;;6.55;100.00
23446;BME280;11895;48.738;9.320;2023-01-24T09:37:34;100447.28;;;6.69;100.00
23446;BME280;11895;48.738;9.320;2023-01-24T09:40:02;100447.13;;;7.02;100.00
23446;BME280;11895;48.738;9.320;2023-01-24T09:48:02;100453.44;;;6.81;100.00
23446;BME280;11895;48.738;9.320;2023-01-24T09:50:40;100449.78;;;7.00;100.00
23446;BME280;11895;48.738;9.320;2023-01-24T09:53:47;100454.03;;;7.36;100.00
23446;BME280;11895;48.738;9.320;2023-01-24T09:56:24;100445.28;;;7.08;100.00
23446;BME280;11895;48.738;9.320;2023-01-24T10:02:16;100446.97;;;7.23;100.00
23446;BME280;11895;48.738;9.320;2023-01-24T10:04:49;100448.72;;;7.27;100.00
23446;BME280;11895;48.738;9.320;2023-01-24T10:07:54;100453.25;;;7.20;100.00
23446;BME280;11895;48.738;9.320;2023-01-24T10:28:52;100452.25;;;7.35;100.00
23446;BME280;11895;48.738;9.320;2023-01-24T10:31:30;100447.63;;;7.53;100.00
23446;BME280;11895;48.738;9.320;2023-01-24T10:34:15;100450.25;;;7.59;100.00
23446;BME280;11895;48.738;9.320;2023-01-24T10:36:54;100447.59;;;7.54;100.00
23446;BME280;11895;48.738;9.320;2023-01-24T10:39:28;100452.19;;;7.38;100.00
23446;BME280;11895;48.738;9.320;2023-01-24T10:41:56;100452.16;;;7.44;100.00
23446;BME280;11895;48.738;9.320;2023-01-24T10:44:29;100450.50;;;7.25;100.00
23446;BME280;11895;48.738;9.320;2023-01-24T10:49:59;100447.56;;;7.62;100.00
23446;BME280;11895;48.738;9.320;2023-01-24T10:52:29;100449.16;;;7.81;100.00
23446;BME280;11895;48.738;9.320;2023-01-24T10:54:59;100431.69;;;7.34;100.00
23446;BME280;11895;48.738;9.320;2023-01-24T11:02:52;100414.59;;;7.51;100.00
23446;BME280;11895;48.738;9.320;2023-01-24T11:05:23;100425.31;;;7.47;100.00
23446;BME280;11895;48.738;9.320;2023-01-24T11:07:54;100432.63;;;7.30;100.00
23446;BME280;11895;48.738;9.320;2023-01-24T11:10:30;100426.44;;;7.20;100.00
23446;BME280;11895;48.738;9.320;2023-01-24T11:18:59;100426.22;;;7.50;100.00
23446;BME280;11895;48.738;9.320;2023-01-24T11:21:33;100424.59;;;7.30;100.00
23446;BME280;11895;48.738;9.320;2023-01-24T11:24:17;100426.03;;;7.69;100.00
23446;BME280;11895;48.738;9.320;2023-01-24T11:27:07;100423.31;;;7.74;100.00
23446;BME280;11895;48.738;9.320;2023-01-24T11:29:42;100416.09;;;7.78;100.00
23446;BME280;11895;48.738;9.320;2023-01-24T11:32:55;100419.56;;;7.90;100.00
23446;BME280;11895;48.738;9.320;2023-01-24T11:49:31;100405.56;;;7.61;100.00
23446;BME280;11895;48.738;9.320;2023-01-24T12:09:25;100390.50;;;8.32;100.00
23446;BME280;11895;48.738;9.320;2023-01-24T12:16:13;100376.16;;;8.30;100.00
23446;BME280;11895;48.738;9.320;2023-01-24T12:21:29;100378.94;;;8.24;100.00
23446;BME280;11895;48.738;9.320;2023-01-24T12:24:12;100379.78;;;8.29;100.00
23446;BME280;11895;48.738;9.320;2023-01-24T12:26:49;100378.94;;;8.24;100.00
23446;BME280;11895;48.738;9.320;2023-01-24T12:29:23;100370.63;;;8.45;100.00
23446;BME280;11895;48.738;9.320;2023-01-24T12:32:02;100370.28;;;7.99;100.00
23446;BME280;11895;48.738;9.320;2023-01-24T12:51:40;100362.56;;;9.09;100.00
23446;BME280;11895;48.738;9.320;2023-01-24T12:54:32;100361.13;;;8.85;100.00
23446;BME280;11895;48.738;9.320;2023-01-24T12:57:26;100356.59;;;8.90;100.00
23446;BME280;11895;48.738;9.320;2023-01-24T12:59:59;100350.16;;;9.00;100.00
23446;BME280;11895;48.738;9.320;2023-01-24T13:05:47;100346.28;;;9.18;100.00
23446;BME280;11895;48.738;9.320;2023-01-24T13:11:25;100357.53;;;8.87;100.00
23446;BME280;11895;48.738;9.320;2023-01-24T13:14:17;100347.59;;;8.92;100.00
23446;BME280;11895;48.738;9.320;2023-01-24T13:20:04;100350.50;;;8.77;100.00
23446;BME280;11895;48.738;9.320;2023-01-24T13:26:04;100348.66;;;8.82;100.00
23446;BME280;11895;48.738;9.320;2023-01-24T13:31:52;100345.81;;;8.91;100.00
23446;BME280;11895;48.738;9.320;2023-01-24T13:34:42;100342.25;;;8.89;100.00
23446;BME280;11895;48.738;9.320;2023-01-24T13:37:48;100352.13;;;8.90;100.00
23446;BME280;11895;48.738;9.320;2023-01-24T13:40:22;100352.13;;;8.90;100.00
23446;BME280;11895;48.738;9.320;2023-01-24T13:42:57;100349.59;;;8.78;100.00
23446;BME280;11895;48.738;9.320;2023-01-24T13:47:54;100344.41;;;8.66;100.00
23446;BME280;11895;48.738;9.320;2023-01-24T13:50:24;100340.81;;;8.65;100.00
23446;BME280;11895;48.738;9.320;2023-01-24T13:52:54;100344.34;;;8.69;100.00
23446;BME280;11895;48.738;9.320;2023-01-24T14:00:47;100345.03;;;8.83;100.00
23446;BME280;11895;48.738;9.320;2023-01-24T14:08:35;100350.03;;;8.46;100.00
23446;BME280;11895;48.738;9.320;2023-01-24T14:22:05;100364.56;;;8.30;100.00
23446;BME280;11895;48.738;9.320;2023-01-24T14:24:56;100369.25;;;8.11;100.00
23446;BME280;11895;48.738;9.320;2023-01-24T14:27:46;100373.84;;;8.03;100.00
23446;BME280;11895;48.738;9.320;2023-01-24T14:30:36;100380.09;;;8.02;100.00
23446;BME280;11895;48.738;9.320;2023-01-24T14:39:12;100381.31;;;7.70;100.00
23446;BME280;11895;48.738;9.320;2023-01-24T14:41:58;100377.53;;;7.88;100.00
23446;BME280;11895;48.738;9.320;2023-01-24T14:44:34;100384.72;;;7.87;100.00
23446;BME280;11895;48.738;9.320;2023-01-24T14:47:23;100386.44;;;7.94;100.00
23446;BME280;11895;48.738;9.320;2023-01-24T14:49:55;100389.16;;;7.91;100.00
23446;BME280;11895;48.738;9.320;2023-01-24T14:52:31;100396.34;;;7.86;100.00
23446;BME280;11895;48.738;9.320;2023-01-24T14:55:12;100394.50;;;7.94;100.00
23446;BME280;11895;48.738;9.320;2023-01-24T14:58:14;100381.19;;;7.84;100.00
23446;BME280;11895;48.738;9.320;2023-01-24T15:00:57;100384.78;;;7.81;100.00
23446;BME280;11895;48.738;9.320;2023-01-24T15:03:29;100392.66;;;7.99;100.00
23446;BME280;11895;48.738;9.320;2023-01-24T15:06:06;100390.97;;;7.89;100.00
23446;BME280;11895;48.738;9.320;2023-01-24T15:08:41;100385.66;;;7.82;100.00
23446;BME280;11895;48.738;9.320;2023-01-24T15:11:20;100386.47;;;7.91;100.00
23446;BME280;11895;48.738;9.320;2023-01-24T15:13:56;100392.00;;;7.76;100.00
23446;BME280;11895;48.738;9.320;2023-01-24T15:16:38;100389.25;;;7.82;100.00
23446;BME280;11895;48.738;9.320;2023-01-24T15:21:56;100389.31;;;7.76;100.00
23446;BME280;11895;48.738;9.320;2023-01-24T15:24:26;100387.72;;;7.57;100.00
23446;BME280;11895;48.738;9.320;2023-01-24T15:27:00;100385.06;;;7.52;100.00
23446;BME280;11895;48.738;9.320;2023-01-24T15:29:48;100394.94;;;7.50;100.00
23446;BME280;11895;48.738;9.320;2023-01-24T15:32:21;100391.31;;;7.53;100.00
23446;BME280;11895;48.738;9.320;2023-01-24T15:41:13;100408.38;;;7.45;100.00
23446;BME280;11895;48.738;9.320;2023-01-24T15:44:05;100409.38;;;7.29;100.00
23446;BME280;11895;48.738;9.320;2023-01-24T15:50:20;100399.47;;;7.40;100.00
23446;BME280;11895;48.738;9.320;2023-01-24T15:53:26;100415.59;;;7.34;100.00
23446;BME280;11895;48.738;9.320;2023-01-24T15:56:02;100411.09;;;7.41;100.00
23446;BME280;11895;48.738;9.320;2023-01-24T15:58:34;100415.53;;;7.45;100.00
23446;BME280;11895;48.738;9.320;2023-01-24T16:01:01;100407.44;;;7.48;100.00
23446;BME280;11895;48.738;9.320;2023-01-24T16:03:30;100418.19;;;7.46;100.00
23446;BME280;11895;48.738;9.320;2023-01-24T16:05:58;100411.97;;;7.41;100.00